BTK7308 WADD-WIHH
Flight info
| Callsign | BTK7308 |
|---|---|
| Flight time | 1h 37m |
| Altitude | 36000 |
| Route | OKANG T4 FARIZ T6 KURUS |
| Aircraft | B738/M-SDE2E3FGHIRWXY/LB1 |
Departure
| Time | 2026-05-04 01:49 |
|---|---|
| Airport | Denpasar I Gusti Ngurah Rai International Airport (WADD) |
Arrival
| Time | 2026-05-04 03:27 |
|---|---|
| Airport | Halim Perdanakusuma International Airport (WIHH) |
| Time | Latitude | Longitude | Altitude | Speed | Heading |
|---|---|---|---|---|---|
| 2026-05-04 01:28 | -8.74499 | 115.16132 | 32 ft | 0 kts | 88° |
| 2026-05-04 01:40 | -8.74499 | 115.16129 | 32 ft | 3 kts | 88° |
| 2026-05-04 01:40 | -8.74500 | 115.16103 | 32 ft | 3 kts | 88° |
| 2026-05-04 01:40 | -8.74499 | 115.16081 | 32 ft | 4 kts | 116° |
| 2026-05-04 01:41 | -8.74482 | 115.16066 | 32 ft | 4 kts | 169° |
| 2026-05-04 01:41 | -8.74472 | 115.16064 | 32 ft | 0 kts | 177° |
| 2026-05-04 01:43 | -8.74490 | 115.16065 | 32 ft | 6 kts | 177° |
| 2026-05-04 01:44 | -8.74534 | 115.16067 | 32 ft | 6 kts | 177° |
| 2026-05-04 01:44 | -8.74579 | 115.16069 | 31 ft | 7 kts | 178° |
| 2026-05-04 01:44 | -8.74631 | 115.16072 | 32 ft | 8 kts | 177° |
| 2026-05-04 01:44 | -8.74682 | 115.16067 | 31 ft | 8 kts | 207° |
| 2026-05-04 01:45 | -8.74708 | 115.16016 | 32 ft | 10 kts | 264° |
| 2026-05-04 01:45 | -8.74712 | 115.15937 | 32 ft | 12 kts | 267° |
| 2026-05-04 01:45 | -8.74719 | 115.15739 | 31 ft | 14 kts | 268° |
| 2026-05-04 01:46 | -8.74723 | 115.15643 | 31 ft | 13 kts | 268° |
| 2026-05-04 01:46 | -8.74727 | 115.15551 | 30 ft | 13 kts | 267° |
| 2026-05-04 01:46 | -8.74731 | 115.15462 | 31 ft | 9 kts | 268° |
| 2026-05-04 01:46 | -8.74754 | 115.15404 | 31 ft | 9 kts | 219° |
| 2026-05-04 01:47 | -8.74817 | 115.15392 | 29 ft | 10 kts | 180° |
| 2026-05-04 01:47 | -8.74879 | 115.15396 | 27 ft | 6 kts | 172° |
| 2026-05-04 01:47 | -8.74896 | 115.15424 | 28 ft | 3 kts | 89° |
| 2026-05-04 01:47 | -8.74896 | 115.15426 | 28 ft | 0 kts | 86° |
| 2026-05-04 01:48 | -8.74895 | 115.15440 | 28 ft | 11 kts | 86° |
| 2026-05-04 01:49 | -8.74883 | 115.15766 | 27 ft | 83 kts | 88° |
| 2026-05-04 01:49 | -8.74849 | 115.16580 | 28 ft | 146 kts | 88° |
| 2026-05-04 01:49 | -8.74794 | 115.17763 | 225 ft | 183 kts | 86° |
| 2026-05-04 01:49 | -8.74729 | 115.19027 | 1178 ft | 175 kts | 87° |
| 2026-05-04 01:50 | -8.74653 | 115.20236 | 1994 ft | 179 kts | 88° |
| 2026-05-04 01:50 | -8.74606 | 115.21589 | 2305 ft | 206 kts | 89° |
| 2026-05-04 01:50 | -8.74555 | 115.23116 | 2513 ft | 228 kts | 89° |
| 2026-05-04 01:50 | -8.74499 | 115.24777 | 2761 ft | 247 kts | 89° |
| 2026-05-04 01:51 | -8.74433 | 115.26559 | 3241 ft | 258 kts | 89° |
| 2026-05-04 01:51 | -8.74362 | 115.28377 | 4055 ft | 259 kts | 89° |
| 2026-05-04 01:51 | -8.74289 | 115.30204 | 4858 ft | 262 kts | 89° |
| 2026-05-04 01:51 | -8.74216 | 115.32061 | 5588 ft | 266 kts | 89° |
| 2026-05-04 01:52 | -8.74141 | 115.33933 | 6326 ft | 270 kts | 88° |
| 2026-05-04 01:52 | -8.74064 | 115.35842 | 7066 ft | 274 kts | 88° |
| 2026-05-04 01:52 | -8.73984 | 115.37782 | 7811 ft | 278 kts | 88° |
| 2026-05-04 01:52 | -8.73903 | 115.39747 | 8457 ft | 283 kts | 88° |
| 2026-05-04 01:53 | -8.73820 | 115.41752 | 8963 ft | 287 kts | 88° |
| 2026-05-04 01:53 | -8.73736 | 115.43774 | 8995 ft | 289 kts | 88° |
| 2026-05-04 01:53 | -8.73652 | 115.45803 | 9011 ft | 289 kts | 88° |
| 2026-05-04 01:53 | -8.73567 | 115.47829 | 9009 ft | 288 kts | 88° |
| 2026-05-04 01:54 | -8.73442 | 115.49849 | 8997 ft | 289 kts | 80° |
| 2026-05-04 01:54 | -8.72658 | 115.51698 | 9025 ft | 288 kts | 55° |
| 2026-05-04 01:54 | -8.71350 | 115.53242 | 9009 ft | 290 kts | 47° |
| 2026-05-04 01:54 | -8.69910 | 115.54673 | 9038 ft | 292 kts | 45° |
| 2026-05-04 01:55 | -8.68427 | 115.56105 | 9531 ft | 297 kts | 45° |
| 2026-05-04 01:55 | -8.66939 | 115.57553 | 10267 ft | 298 kts | 45° |
| 2026-05-04 01:55 | -8.65413 | 115.59054 | 10510 ft | 317 kts | 45° |
| 2026-05-04 01:55 | -8.63789 | 115.60667 | 10660 ft | 337 kts | 45° |
| 2026-05-04 01:56 | -8.62079 | 115.62375 | 10892 ft | 353 kts | 45° |
| 2026-05-04 01:56 | -8.60316 | 115.64141 | 11377 ft | 359 kts | 45° |
| 2026-05-04 01:56 | -8.58542 | 115.65918 | 12004 ft | 360 kts | 45° |
| 2026-05-04 01:56 | -8.56738 | 115.67682 | 12623 ft | 363 kts | 40° |
| 2026-05-04 01:57 | -8.54519 | 115.68914 | 13154 ft | 369 kts | 17° |
| 2026-05-04 01:57 | -8.51975 | 115.69267 | 13753 ft | 373 kts | 358° |
| 2026-05-04 01:57 | -8.49417 | 115.68805 | 14322 ft | 378 kts | 338° |
| 2026-05-04 01:57 | -8.47204 | 115.67391 | 14865 ft | 381 kts | 316° |
| 2026-05-04 01:58 | -8.45597 | 115.65249 | 15445 ft | 385 kts | 296° |
| 2026-05-04 01:58 | -8.44754 | 115.62689 | 16027 ft | 387 kts | 277° |
| 2026-05-04 01:58 | -8.44690 | 115.59964 | 16612 ft | 389 kts | 268° |
| 2026-05-04 01:58 | -8.44788 | 115.57260 | 17152 ft | 392 kts | 267° |
| 2026-05-04 01:59 | -8.44914 | 115.54497 | 17656 ft | 396 kts | 266° |
| 2026-05-04 01:59 | -8.45037 | 115.51706 | 18164 ft | 399 kts | 267° |
| 2026-05-04 01:59 | -8.45147 | 115.48899 | 18684 ft | 402 kts | 267° |
| 2026-05-04 01:59 | -8.45246 | 115.46068 | 19177 ft | 404 kts | 267° |
| 2026-05-04 02:00 | -8.45338 | 115.43225 | 19643 ft | 407 kts | 268° |
| 2026-05-04 02:00 | -8.45426 | 115.40380 | 20090 ft | 411 kts | 268° |
| 2026-05-04 02:00 | -8.45515 | 115.37457 | 20540 ft | 414 kts | 268° |
| 2026-05-04 02:00 | -8.45603 | 115.34544 | 20969 ft | 416 kts | 268° |
| 2026-05-04 02:01 | -8.45693 | 115.31610 | 21391 ft | 419 kts | 268° |
| 2026-05-04 02:01 | -8.45783 | 115.28658 | 21797 ft | 421 kts | 268° |
| 2026-05-04 02:01 | -8.45877 | 115.25694 | 22183 ft | 424 kts | 268° |
| 2026-05-04 02:01 | -8.45974 | 115.22706 | 22557 ft | 427 kts | 268° |
| 2026-05-04 02:02 | -8.46073 | 115.19700 | 22927 ft | 429 kts | 268° |
| 2026-05-04 02:02 | -8.46171 | 115.16684 | 23286 ft | 431 kts | 268° |
| 2026-05-04 02:02 | -8.46269 | 115.13647 | 23623 ft | 434 kts | 268° |
| 2026-05-04 02:02 | -8.46367 | 115.10589 | 23947 ft | 436 kts | 268° |
| 2026-05-04 02:03 | -8.46466 | 115.07519 | 24272 ft | 438 kts | 268° |
| 2026-05-04 02:03 | -8.46562 | 115.04437 | 24585 ft | 440 kts | 269° |
| 2026-05-04 02:03 | -8.46231 | 115.01366 | 24845 ft | 444 kts | 287° |
| 2026-05-04 02:03 | -8.44908 | 114.98549 | 25170 ft | 446 kts | 304° |
| 2026-05-04 02:04 | -8.42870 | 114.96193 | 25483 ft | 448 kts | 320° |
| 2026-05-04 02:04 | -8.40273 | 114.94441 | 25771 ft | 450 kts | 329° |
| 2026-05-04 02:04 | -8.37555 | 114.92863 | 26041 ft | 452 kts | 330° |
| 2026-05-04 02:04 | -8.34837 | 114.91265 | 26288 ft | 455 kts | 329° |
| 2026-05-04 02:05 | -8.32170 | 114.89688 | 26549 ft | 457 kts | 329° |
| 2026-05-04 02:05 | -8.29420 | 114.88062 | 26849 ft | 458 kts | 329° |
| 2026-05-04 02:05 | -8.26669 | 114.86433 | 27148 ft | 459 kts | 329° |
| 2026-05-04 02:05 | -8.23911 | 114.84798 | 27409 ft | 461 kts | 329° |
| 2026-05-04 02:06 | -8.21137 | 114.83153 | 27667 ft | 462 kts | 329° |
| 2026-05-04 02:06 | -8.18358 | 114.81505 | 27941 ft | 464 kts | 329° |
| 2026-05-04 02:06 | -8.15576 | 114.79853 | 28183 ft | 465 kts | 329° |
| 2026-05-04 02:06 | -8.12780 | 114.78196 | 28406 ft | 467 kts | 329° |
| 2026-05-04 02:07 | -8.09977 | 114.76535 | 28647 ft | 469 kts | 329° |
| 2026-05-04 02:07 | -8.07594 | 114.75119 | 28840 ft | 470 kts | 329° |
| 2026-05-04 02:07 | -8.04771 | 114.73439 | 29068 ft | 472 kts | 329° |
| 2026-05-04 02:07 | -8.01934 | 114.71761 | 29254 ft | 474 kts | 329° |
| 2026-05-04 02:08 | -7.99084 | 114.70076 | 29446 ft | 476 kts | 329° |
| 2026-05-04 02:08 | -7.96337 | 114.68451 | 29649 ft | 477 kts | 329° |
| 2026-05-04 02:08 | -7.93483 | 114.66732 | 29856 ft | 479 kts | 326° |
| 2026-05-04 02:08 | -7.91032 | 114.64472 | 30013 ft | 480 kts | 308° |
| 2026-05-04 02:09 | -7.89287 | 114.61607 | 30227 ft | 480 kts | 292° |
| 2026-05-04 02:09 | -7.88275 | 114.58403 | 30466 ft | 480 kts | 284° |
| 2026-05-04 02:09 | -7.87450 | 114.55147 | 30748 ft | 479 kts | 283° |
| 2026-05-04 02:09 | -7.86652 | 114.51895 | 31066 ft | 477 kts | 283° |
| 2026-05-04 02:10 | -7.85847 | 114.48650 | 31383 ft | 476 kts | 283° |
| 2026-05-04 02:10 | -7.85029 | 114.45425 | 31730 ft | 474 kts | 284° |
| 2026-05-04 02:10 | -7.84209 | 114.42259 | 32060 ft | 472 kts | 284° |
| 2026-05-04 02:10 | -7.83360 | 114.39025 | 32366 ft | 471 kts | 284° |
| 2026-05-04 02:11 | -7.82529 | 114.35880 | 32675 ft | 469 kts | 284° |
| 2026-05-04 02:11 | -7.81691 | 114.32711 | 33002 ft | 467 kts | 284° |
| 2026-05-04 02:11 | -7.80853 | 114.29544 | 33304 ft | 466 kts | 284° |
| 2026-05-04 02:11 | -7.80020 | 114.26394 | 33596 ft | 465 kts | 284° |
| 2026-05-04 02:12 | -7.79189 | 114.23249 | 33907 ft | 464 kts | 284° |
| 2026-05-04 02:12 | -7.78361 | 114.20112 | 34232 ft | 462 kts | 284° |
| 2026-05-04 02:12 | -7.77535 | 114.16983 | 34526 ft | 461 kts | 284° |
| 2026-05-04 02:12 | -7.76710 | 114.13863 | 34785 ft | 461 kts | 284° |
| 2026-05-04 02:13 | -7.75886 | 114.10746 | 35042 ft | 460 kts | 284° |
| 2026-05-04 02:13 | -7.74883 | 114.07686 | 35288 ft | 461 kts | 295° |
| 2026-05-04 02:13 | -7.73208 | 114.04924 | 35530 ft | 461 kts | 302° |
| 2026-05-04 02:13 | -7.71417 | 114.02246 | 35783 ft | 461 kts | 303° |
| 2026-05-04 02:14 | -7.69614 | 113.99572 | 35946 ft | 462 kts | 303° |
| 2026-05-04 02:14 | -7.67821 | 113.96901 | 35933 ft | 464 kts | 303° |
| 2026-05-04 02:14 | -7.64836 | 113.92397 | 35934 ft | 462 kts | 302° |
| 2026-05-04 02:15 | -7.61337 | 113.87052 | 35940 ft | 458 kts | 302° |
| 2026-05-04 02:15 | -7.57844 | 113.81695 | 35946 ft | 456 kts | 302° |
| 2026-05-04 02:16 | -7.54559 | 113.76651 | 35943 ft | 455 kts | 302° |
| 2026-05-04 02:16 | -7.51370 | 113.71758 | 35946 ft | 455 kts | 302° |
| 2026-05-04 02:17 | -7.48816 | 113.67839 | 35948 ft | 455 kts | 302° |
| 2026-05-04 02:17 | -7.46991 | 113.65063 | 35936 ft | 456 kts | 304° |
| 2026-05-04 02:18 | -7.45134 | 113.62687 | 35883 ft | 458 kts | 310° |
| 2026-05-04 02:18 | -7.43928 | 113.61020 | 35887 ft | 455 kts | 297° |
| 2026-05-04 02:18 | -7.42412 | 113.58231 | 35963 ft | 454 kts | 299° |
| 2026-05-04 02:19 | -7.39058 | 113.52807 | 35941 ft | 457 kts | 302° |
| 2026-05-04 02:19 | -7.35551 | 113.47450 | 35945 ft | 459 kts | 303° |
| 2026-05-04 02:20 | -7.32011 | 113.42075 | 35946 ft | 462 kts | 303° |
| 2026-05-04 02:20 | -7.28458 | 113.36662 | 35944 ft | 464 kts | 302° |
| 2026-05-04 02:21 | -7.24904 | 113.31226 | 35937 ft | 466 kts | 303° |
| 2026-05-04 02:21 | -7.21340 | 113.25776 | 35936 ft | 466 kts | 303° |
| 2026-05-04 02:22 | -7.17777 | 113.20327 | 35932 ft | 466 kts | 303° |
| 2026-05-04 02:22 | -7.14217 | 113.14886 | 35934 ft | 465 kts | 303° |
| 2026-05-04 02:23 | -7.10668 | 113.09465 | 35921 ft | 458 kts | 303° |
| 2026-05-04 02:23 | -7.07187 | 113.04150 | 35942 ft | 456 kts | 303° |
| 2026-05-04 02:24 | -7.03671 | 112.98783 | 35945 ft | 463 kts | 303° |
| 2026-05-04 02:24 | -7.00112 | 112.93352 | 35940 ft | 466 kts | 303° |
| 2026-05-04 02:25 | -6.96541 | 112.87903 | 35936 ft | 467 kts | 303° |
| 2026-05-04 02:25 | -6.92963 | 112.82444 | 35941 ft | 467 kts | 303° |
| 2026-05-04 02:26 | -6.89388 | 112.76995 | 35943 ft | 466 kts | 303° |
| 2026-05-04 02:26 | -6.85840 | 112.71589 | 35934 ft | 465 kts | 303° |
| 2026-05-04 02:27 | -6.82256 | 112.66126 | 35932 ft | 464 kts | 303° |
| 2026-05-04 02:27 | -6.78705 | 112.60717 | 35934 ft | 463 kts | 303° |
| 2026-05-04 02:28 | -6.75184 | 112.55357 | 35934 ft | 461 kts | 303° |
| 2026-05-04 02:28 | -6.71650 | 112.49978 | 35934 ft | 460 kts | 303° |
| 2026-05-04 02:29 | -6.68126 | 112.44616 | 35935 ft | 459 kts | 303° |
| 2026-05-04 02:29 | -6.64604 | 112.39259 | 35937 ft | 459 kts | 303° |
| 2026-05-04 02:30 | -6.61081 | 112.33902 | 35935 ft | 459 kts | 303° |
| 2026-05-04 02:30 | -6.57563 | 112.28552 | 35937 ft | 460 kts | 304° |
| 2026-05-04 02:31 | -6.54027 | 112.23178 | 35937 ft | 461 kts | 304° |
| 2026-05-04 02:31 | -6.50487 | 112.17800 | 35932 ft | 462 kts | 304° |
| 2026-05-04 02:32 | -6.46942 | 112.12411 | 35937 ft | 462 kts | 304° |
| 2026-05-04 02:32 | -6.43387 | 112.07014 | 35937 ft | 463 kts | 304° |
| 2026-05-04 02:33 | -6.39823 | 112.01604 | 35928 ft | 464 kts | 304° |
| 2026-05-04 02:33 | -6.36256 | 111.96190 | 35925 ft | 465 kts | 304° |
| 2026-05-04 02:34 | -6.32683 | 111.90769 | 35926 ft | 465 kts | 304° |
| 2026-05-04 02:34 | -6.29110 | 111.85347 | 35927 ft | 465 kts | 304° |
| 2026-05-04 02:35 | -6.25559 | 111.79965 | 35925 ft | 465 kts | 304° |
| 2026-05-04 02:35 | -6.21966 | 111.74522 | 35925 ft | 464 kts | 304° |
| 2026-05-04 02:36 | -6.18402 | 111.69124 | 35924 ft | 463 kts | 304° |
| 2026-05-04 02:36 | -6.14862 | 111.63761 | 35925 ft | 463 kts | 304° |
| 2026-05-04 02:37 | -6.11300 | 111.58368 | 35926 ft | 463 kts | 304° |
| 2026-05-04 02:37 | -6.07744 | 111.52986 | 35927 ft | 462 kts | 304° |
| 2026-05-04 02:38 | -6.04187 | 111.47603 | 35925 ft | 462 kts | 304° |
| 2026-05-04 02:38 | -6.00631 | 111.42223 | 35925 ft | 462 kts | 304° |
| 2026-05-04 02:39 | -5.97073 | 111.36841 | 35922 ft | 462 kts | 304° |
| 2026-05-04 02:39 | -5.93516 | 111.31461 | 35928 ft | 462 kts | 304° |
| 2026-05-04 02:40 | -5.89956 | 111.26074 | 35927 ft | 463 kts | 303° |
| 2026-05-04 02:40 | -5.88475 | 111.23211 | 35921 ft | 464 kts | 291° |
| 2026-05-04 02:40 | -5.87582 | 111.20101 | 35933 ft | 464 kts | 281° |
| 2026-05-04 02:41 | -5.87261 | 111.16881 | 35910 ft | 464 kts | 269° |
| 2026-05-04 02:41 | -5.87358 | 111.13645 | 35928 ft | 465 kts | 268° |
| 2026-05-04 02:41 | -5.87663 | 111.07149 | 35916 ft | 466 kts | 268° |
| 2026-05-04 02:42 | -5.87953 | 111.00639 | 35917 ft | 467 kts | 268° |
| 2026-05-04 02:42 | -5.88201 | 110.94111 | 35919 ft | 468 kts | 268° |
| 2026-05-04 02:43 | -5.88429 | 110.87572 | 35917 ft | 469 kts | 268° |
| 2026-05-04 02:43 | -5.88653 | 110.81015 | 35916 ft | 470 kts | 268° |
| 2026-05-04 02:44 | -5.88878 | 110.74459 | 35920 ft | 469 kts | 268° |
| 2026-05-04 02:44 | -5.89101 | 110.67953 | 35919 ft | 469 kts | 268° |
| 2026-05-04 02:45 | -5.89324 | 110.61406 | 35915 ft | 469 kts | 268° |
| 2026-05-04 02:45 | -5.89550 | 110.54820 | 35918 ft | 468 kts | 268° |
| 2026-05-04 02:46 | -5.89770 | 110.48332 | 35914 ft | 468 kts | 268° |
| 2026-05-04 02:46 | -5.89991 | 110.41804 | 35918 ft | 467 kts | 268° |
| 2026-05-04 02:47 | -5.90212 | 110.35290 | 35916 ft | 467 kts | 268° |
| 2026-05-04 02:47 | -5.90431 | 110.28785 | 35917 ft | 466 kts | 268° |
| 2026-05-04 02:48 | -5.90654 | 110.22285 | 35918 ft | 466 kts | 268° |
| 2026-05-04 02:48 | -5.90869 | 110.15791 | 35916 ft | 465 kts | 268° |
| 2026-05-04 02:49 | -5.91083 | 110.09297 | 35917 ft | 465 kts | 268° |
| 2026-05-04 02:49 | -5.91299 | 110.02809 | 35915 ft | 465 kts | 268° |
| 2026-05-04 02:50 | -5.91513 | 109.96327 | 35920 ft | 464 kts | 268° |
| 2026-05-04 02:50 | -5.91727 | 109.89846 | 35917 ft | 465 kts | 268° |
| 2026-05-04 02:51 | -5.91940 | 109.83353 | 35917 ft | 465 kts | 269° |
| 2026-05-04 02:51 | -5.92152 | 109.76859 | 35917 ft | 465 kts | 268° |
| 2026-05-04 02:52 | -5.92362 | 109.70404 | 35913 ft | 466 kts | 268° |
| 2026-05-04 02:52 | -5.92574 | 109.63903 | 35916 ft | 465 kts | 268° |
| 2026-05-04 02:53 | -5.92777 | 109.57410 | 35911 ft | 465 kts | 269° |
| 2026-05-04 02:53 | -5.92991 | 109.50917 | 35923 ft | 466 kts | 268° |
| 2026-05-04 02:54 | -5.93208 | 109.44404 | 35917 ft | 467 kts | 269° |
| 2026-05-04 02:54 | -5.93415 | 109.37884 | 35916 ft | 467 kts | 269° |
| 2026-05-04 02:55 | -5.93727 | 109.28098 | 35926 ft | 468 kts | 269° |
| 2026-05-04 02:56 | -5.93937 | 109.21565 | 35927 ft | 468 kts | 268° |
| 2026-05-04 02:56 | -5.94147 | 109.15028 | 35942 ft | 468 kts | 268° |
| 2026-05-04 02:57 | -5.94366 | 109.08490 | 35929 ft | 468 kts | 269° |
| 2026-05-04 02:57 | -5.94559 | 109.01950 | 35926 ft | 468 kts | 269° |
| 2026-05-04 02:58 | -5.94754 | 108.95457 | 35927 ft | 468 kts | 269° |
| 2026-05-04 02:58 | -5.94956 | 108.88925 | 35925 ft | 468 kts | 269° |
| 2026-05-04 02:58 | -5.95058 | 108.85650 | 35676 ft | 473 kts | 269° |
| 2026-05-04 02:59 | -5.95161 | 108.82333 | 35081 ft | 475 kts | 269° |
| 2026-05-04 02:59 | -5.95265 | 108.79023 | 34427 ft | 474 kts | 269° |
| 2026-05-04 02:59 | -5.95367 | 108.75709 | 33748 ft | 475 kts | 269° |
| 2026-05-04 02:59 | -5.95469 | 108.72400 | 33175 ft | 473 kts | 269° |
| 2026-05-04 03:00 | -5.95571 | 108.69109 | 32676 ft | 469 kts | 269° |
| 2026-05-04 03:00 | -5.95671 | 108.65855 | 32180 ft | 465 kts | 269° |
| 2026-05-04 03:00 | -5.95771 | 108.62621 | 31699 ft | 462 kts | 269° |
| 2026-05-04 03:00 | -5.95870 | 108.59409 | 31219 ft | 458 kts | 269° |
| 2026-05-04 03:01 | -5.95967 | 108.56218 | 30745 ft | 454 kts | 269° |
| 2026-05-04 03:01 | -5.96062 | 108.53063 | 30271 ft | 451 kts | 269° |
| 2026-05-04 03:01 | -5.96161 | 108.49924 | 29802 ft | 448 kts | 268° |
| 2026-05-04 03:01 | -5.96650 | 108.46850 | 29285 ft | 446 kts | 250° |
| 2026-05-04 03:02 | -5.97935 | 108.44038 | 28865 ft | 441 kts | 243° |
| 2026-05-04 03:02 | -5.99337 | 108.41310 | 28365 ft | 439 kts | 242° |
| 2026-05-04 03:02 | -6.00270 | 108.39512 | 28048 ft | 436 kts | 242° |
| 2026-05-04 03:02 | -6.01662 | 108.36814 | 27574 ft | 433 kts | 243° |
| 2026-05-04 03:03 | -6.03032 | 108.34129 | 27098 ft | 431 kts | 243° |
| 2026-05-04 03:03 | -6.04829 | 108.30556 | 26471 ft | 427 kts | 243° |
| 2026-05-04 03:03 | -6.05710 | 108.28794 | 26160 ft | 425 kts | 243° |
| 2026-05-04 03:03 | -6.07028 | 108.26150 | 25696 ft | 422 kts | 243° |
| 2026-05-04 03:04 | -6.08333 | 108.23528 | 25231 ft | 419 kts | 243° |
| 2026-05-04 03:04 | -6.09632 | 108.20919 | 24781 ft | 416 kts | 243° |
| 2026-05-04 03:04 | -6.10922 | 108.18332 | 24309 ft | 413 kts | 243° |
| 2026-05-04 03:04 | -6.12207 | 108.15756 | 23854 ft | 410 kts | 242° |
| 2026-05-04 03:05 | -6.13472 | 108.13201 | 23401 ft | 408 kts | 243° |
| 2026-05-04 03:05 | -6.14723 | 108.10645 | 22936 ft | 405 kts | 243° |
| 2026-05-04 03:05 | -6.15957 | 108.08115 | 22476 ft | 403 kts | 243° |
| 2026-05-04 03:05 | -6.17186 | 108.05595 | 22031 ft | 400 kts | 243° |
| 2026-05-04 03:06 | -6.18404 | 108.03100 | 21587 ft | 397 kts | 243° |
| 2026-05-04 03:06 | -6.19620 | 108.00612 | 21141 ft | 394 kts | 243° |
| 2026-05-04 03:06 | -6.20773 | 107.98169 | 20701 ft | 391 kts | 249° |
| 2026-05-04 03:06 | -6.21296 | 107.95473 | 20257 ft | 388 kts | 269° |
| 2026-05-04 03:07 | -6.21264 | 107.92808 | 19865 ft | 384 kts | 272° |
| 2026-05-04 03:07 | -6.21175 | 107.90135 | 19429 ft | 382 kts | 272° |
| 2026-05-04 03:07 | -6.21079 | 107.87475 | 19002 ft | 380 kts | 272° |
| 2026-05-04 03:07 | -6.20993 | 107.84830 | 18579 ft | 377 kts | 272° |
| 2026-05-04 03:08 | -6.20918 | 107.82206 | 18157 ft | 375 kts | 272° |
| 2026-05-04 03:08 | -6.20852 | 107.79595 | 17739 ft | 372 kts | 272° |
| 2026-05-04 03:08 | -6.20790 | 107.77006 | 17321 ft | 370 kts | 272° |
| 2026-05-04 03:08 | -6.20730 | 107.74431 | 16909 ft | 367 kts | 272° |
| 2026-05-04 03:09 | -6.20672 | 107.71874 | 16496 ft | 365 kts | 272° |
| 2026-05-04 03:09 | -6.20614 | 107.69340 | 16085 ft | 362 kts | 272° |
| 2026-05-04 03:09 | -6.20556 | 107.66820 | 15689 ft | 359 kts | 272° |
| 2026-05-04 03:09 | -6.20498 | 107.64321 | 15275 ft | 357 kts | 271° |
| 2026-05-04 03:10 | -6.20440 | 107.61837 | 14870 ft | 354 kts | 272° |
| 2026-05-04 03:10 | -6.20379 | 107.59375 | 14471 ft | 352 kts | 272° |
| 2026-05-04 03:10 | -6.20317 | 107.56925 | 14075 ft | 349 kts | 272° |
| 2026-05-04 03:10 | -6.20255 | 107.54494 | 13680 ft | 347 kts | 272° |
| 2026-05-04 03:11 | -6.20193 | 107.52073 | 13278 ft | 345 kts | 271° |
| 2026-05-04 03:11 | -6.20133 | 107.49678 | 12896 ft | 342 kts | 271° |
| 2026-05-04 03:11 | -6.20073 | 107.47296 | 12503 ft | 340 kts | 271° |
| 2026-05-04 03:11 | -6.20014 | 107.44950 | 12118 ft | 338 kts | 271° |
| 2026-05-04 03:12 | -6.19955 | 107.42598 | 11726 ft | 336 kts | 271° |
| 2026-05-04 03:12 | -6.19896 | 107.40261 | 11340 ft | 333 kts | 271° |
| 2026-05-04 03:12 | -6.19837 | 107.37939 | 10955 ft | 331 kts | 271° |
| 2026-05-04 03:12 | -6.19777 | 107.35630 | 10567 ft | 330 kts | 271° |
| 2026-05-04 03:13 | -6.19719 | 107.33360 | 10458 ft | 319 kts | 271° |
| 2026-05-04 03:13 | -6.19664 | 107.31172 | 10295 ft | 311 kts | 271° |
| 2026-05-04 03:13 | -6.19848 | 107.29050 | 10151 ft | 306 kts | 251° |
| 2026-05-04 03:13 | -6.20754 | 107.27147 | 10067 ft | 301 kts | 238° |
| 2026-05-04 03:14 | -6.21858 | 107.25393 | 9854 ft | 303 kts | 236° |
| 2026-05-04 03:14 | -6.23021 | 107.23611 | 9551 ft | 307 kts | 236° |
| 2026-05-04 03:14 | -6.24198 | 107.21802 | 9239 ft | 310 kts | 236° |
| 2026-05-04 03:14 | -6.25363 | 107.19989 | 8919 ft | 308 kts | 236° |
| 2026-05-04 03:15 | -6.26513 | 107.18181 | 8604 ft | 306 kts | 236° |
| 2026-05-04 03:15 | -6.27650 | 107.16384 | 8294 ft | 303 kts | 236° |
| 2026-05-04 03:15 | -6.28777 | 107.14599 | 7987 ft | 301 kts | 236° |
| 2026-05-04 03:15 | -6.29861 | 107.12876 | 7680 ft | 299 kts | 237° |
| 2026-05-04 03:16 | -6.30938 | 107.11130 | 7377 ft | 297 kts | 237° |
| 2026-05-04 03:16 | -6.32029 | 107.09349 | 7066 ft | 295 kts | 237° |
| 2026-05-04 03:16 | -6.33103 | 107.07596 | 6762 ft | 293 kts | 237° |
| 2026-05-04 03:16 | -6.34152 | 107.05882 | 6453 ft | 291 kts | 237° |
| 2026-05-04 03:17 | -6.35210 | 107.04157 | 6165 ft | 289 kts | 237° |
| 2026-05-04 03:17 | -6.36260 | 107.02449 | 5875 ft | 285 kts | 237° |
| 2026-05-04 03:17 | -6.37275 | 107.00793 | 5574 ft | 279 kts | 237° |
| 2026-05-04 03:17 | -6.38295 | 106.99124 | 5289 ft | 274 kts | 237° |
| 2026-05-04 03:18 | -6.39288 | 106.97507 | 5129 ft | 268 kts | 237° |
| 2026-05-04 03:18 | -6.40241 | 106.95932 | 4997 ft | 260 kts | 241° |
| 2026-05-04 03:18 | -6.40774 | 106.94225 | 4885 ft | 254 kts | 259° |
| 2026-05-04 03:18 | -6.41063 | 106.92504 | 4790 ft | 250 kts | 259° |
| 2026-05-04 03:19 | -6.41355 | 106.90787 | 4686 ft | 248 kts | 259° |
| 2026-05-04 03:19 | -6.41656 | 106.89080 | 4590 ft | 248 kts | 258° |
| 2026-05-04 03:19 | -6.41965 | 106.87378 | 4486 ft | 247 kts | 258° |
| 2026-05-04 03:19 | -6.42275 | 106.85681 | 4386 ft | 247 kts | 258° |
| 2026-05-04 03:20 | -6.42588 | 106.83989 | 4290 ft | 246 kts | 258° |
| 2026-05-04 03:20 | -6.42854 | 106.82564 | 4227 ft | 236 kts | 258° |
| 2026-05-04 03:20 | -6.43137 | 106.81034 | 4109 ft | 231 kts | 259° |
| 2026-05-04 03:20 | -6.43077 | 106.79511 | 3960 ft | 225 kts | 291° |
| 2026-05-04 03:21 | -6.42173 | 106.78270 | 3823 ft | 222 kts | 322° |
| 2026-05-04 03:21 | -6.40945 | 106.77529 | 3651 ft | 223 kts | 336° |
| 2026-05-04 03:21 | -6.39550 | 106.76907 | 3447 ft | 220 kts | 338° |
| 2026-05-04 03:21 | -6.38168 | 106.76302 | 3242 ft | 213 kts | 338° |
| 2026-05-04 03:22 | -6.36836 | 106.75714 | 3011 ft | 207 kts | 337° |
| 2026-05-04 03:22 | -6.35563 | 106.75145 | 2931 ft | 192 kts | 337° |
| 2026-05-04 03:22 | -6.34344 | 106.74738 | 2857 ft | 183 kts | 0° |
| 2026-05-04 03:22 | -6.33226 | 106.75190 | 2797 ft | 178 kts | 51° |
| 2026-05-04 03:23 | -6.32593 | 106.76272 | 2599 ft | 182 kts | 64° |
| 2026-05-04 03:23 | -6.32086 | 106.77304 | 2384 ft | 174 kts | 66° |
| 2026-05-04 03:23 | -6.31664 | 106.78200 | 2168 ft | 167 kts | 66° |
| 2026-05-04 03:23 | -6.31186 | 106.79233 | 1974 ft | 165 kts | 67° |
| 2026-05-04 03:24 | -6.30703 | 106.80285 | 1791 ft | 165 kts | 66° |
| 2026-05-04 03:24 | -6.30235 | 106.81307 | 1558 ft | 156 kts | 66° |
| 2026-05-04 03:24 | -6.29791 | 106.82277 | 1335 ft | 149 kts | 66° |
| 2026-05-04 03:24 | -6.29369 | 106.83198 | 1149 ft | 150 kts | 66° |
| 2026-05-04 03:25 | -6.28932 | 106.84125 | 990 ft | 145 kts | 64° |
| 2026-05-04 03:25 | -6.28537 | 106.84962 | 796 ft | 142 kts | 68° |
| 2026-05-04 03:25 | -6.28150 | 106.85880 | 622 ft | 144 kts | 67° |
| 2026-05-04 03:25 | -6.27731 | 106.86777 | 417 ft | 141 kts | 65° |
| 2026-05-04 03:26 | -6.27325 | 106.87672 | 214 ft | 140 kts | 65° |
| 2026-05-04 03:26 | -6.26924 | 106.88550 | 95 ft | 131 kts | 66° |
| 2026-05-04 03:26 | -6.26586 | 106.89273 | 95 ft | 93 kts | 65° |
| 2026-05-04 03:26 | -6.26378 | 106.89729 | 94 ft | 51 kts | 65° |
| 2026-05-04 03:27 | -6.26264 | 106.89979 | 95 ft | 33 kts | 64° |
| 2026-05-04 03:27 | -6.26188 | 106.90138 | 95 ft | 19 kts | 61° |
| 2026-05-04 03:27 | -6.26125 | 106.90209 | 96 ft | 9 kts | 71° |
| 2026-05-04 03:27 | -6.26154 | 106.90213 | 97 ft | 7 kts | 234° |
| 2026-05-04 03:28 | -6.26186 | 106.90142 | 94 ft | 17 kts | 246° |
| 2026-05-04 03:28 | -6.26237 | 106.90029 | 95 ft | 18 kts | 245° |
| 2026-05-04 03:28 | -6.26287 | 106.89919 | 96 ft | 18 kts | 245° |
| 2026-05-04 03:28 | -6.26347 | 106.89791 | 95 ft | 23 kts | 244° |
| 2026-05-04 03:29 | -6.26416 | 106.89646 | 96 ft | 23 kts | 245° |
| 2026-05-04 03:29 | -6.26492 | 106.89478 | 94 ft | 27 kts | 245° |
| 2026-05-04 03:29 | -6.26564 | 106.89322 | 95 ft | 21 kts | 245° |
| 2026-05-04 03:29 | -6.26566 | 106.89197 | 95 ft | 18 kts | 291° |
| 2026-05-04 03:30 | -6.26521 | 106.89088 | 94 ft | 11 kts | 291° |
| 2026-05-04 03:30 | -6.26496 | 106.89013 | 94 ft | 11 kts | 276° |
| 2026-05-04 03:30 | -6.26519 | 106.88941 | 94 ft | 11 kts | 245° |
| 2026-05-04 03:30 | -6.26551 | 106.88873 | 94 ft | 11 kts | 244° |
| 2026-05-04 03:31 | -6.26582 | 106.88808 | 94 ft | 10 kts | 245° |
| 2026-05-04 03:31 | -6.26611 | 106.88744 | 94 ft | 10 kts | 245° |
| 2026-05-04 03:31 | -6.26634 | 106.88695 | 94 ft | 7 kts | 245° |
| 2026-05-04 03:31 | -6.26642 | 106.88669 | 92 ft | 3 kts | 270° |
| 2026-05-04 03:32 | -6.26627 | 106.88653 | 95 ft | 4 kts | 324° |
| 2026-05-04 03:32 | -6.26613 | 106.88645 | 93 ft | 2 kts | 333° |
| 2026-05-04 03:32 | -6.26604 | 106.88640 | 94 ft | 1 kts | 334° |
| 2026-05-04 03:32 | -6.26600 | 106.88638 | 94 ft | 0 kts | 334° |